Time;durP1;ratioP1;P1;durP2;ratioP2;P2;SDS_P1;SDS_P2;PMS_P1;PMS_P2;Temp;Humidity;BMP_temperature;BMP_pressure;BME280_temperature;BME280_humidity;BME280_pressure;Samples;Min_cycle;Max_cycle;Signal;HPM_P1;HPM_P2
2022/10/08 00:01:55;;;;;;;8.25;5.53;;;15.60;99.90;;;;;;4943962;29;20064;-83
2022/10/08 00:04:22;;;;;;;13.40;6.15;;;15.50;99.90;;;;;;4933580;29;20050;-84
2022/10/08 00:06:49;;;;;;;17.30;5.88;;;15.60;99.90;;;;;;4939576;29;20512;-84
2022/10/08 00:09:16;;;;;;;13.38;5.43;;;15.60;99.90;;;;;;4934406;29;20062;-84
2022/10/08 00:11:43;;;;;;;13.50;5.18;;;15.60;99.90;;;;;;4934857;29;20058;-84
2022/10/08 00:14:09;;;;;;;10.75;6.05;;;15.60;99.90;;;;;;4950154;29;20100;-85
2022/10/08 00:16:39;;;;;;;14.75;5.88;;;15.60;99.90;;;;;;4947558;29;20051;-83
2022/10/08 00:19:12;;;;;;;15.40;5.90;;;15.60;99.90;;;;;;4951937;29;20040;-85
2022/10/08 00:21:41;;;;;;;17.25;6.57;;;15.60;99.90;;;;;;4948768;29;20100;-86
2022/10/08 00:24:12;;;;;;;12.15;6.45;;;15.70;99.90;;;;;;4951372;29;20099;-86
2022/10/08 00:26:39;;;;;;;11.05;6.22;;;15.60;99.90;;;;;;4943484;29;20076;-84
2022/10/08 00:29:11;;;;;;;;;;;15.60;99.90;;;;;;4940253;29;20056;-84
2022/10/08 00:31:39;;;;;;;13.15;6.10;;;15.60;99.90;;;;;;4930406;29;19923;-84
2022/10/08 00:34:09;;;;;;;12.48;5.93;;;15.60;99.90;;;;;;4935762;29;20052;-83
2022/10/08 00:36:38;;;;;;;16.67;6.57;;;15.60;99.90;;;;;;4942091;29;20134;-83
2022/10/08 00:39:15;;;;;;;11.05;5.63;;;15.60;99.90;;;;;;4938821;29;20048;-84
2022/10/08 00:41:44;;;;;;;10.95;5.65;;;15.60;99.90;;;;;;4948469;29;20134;-84
2022/10/08 00:44:45;;;;;;;13.38;6.05;;;15.60;99.90;;;;;;4956135;29;20062;-85
2022/10/08 00:47:31;;;;;;;11.93;6.15;;;15.60;99.90;;;;;;4938436;29;20072;-82
2022/10/08 00:50:12;;;;;;;8.48;6.03;;;15.60;99.90;;;;;;4938290;29;20426;-82
2022/10/08 00:52:54;;;;;;;10.85;6.45;;;15.60;99.90;;;;;;4933068;29;20082;-84
2022/10/08 00:55:23;;;;;;;16.13;6.50;;;15.60;99.90;;;;;;4943575;29;20052;-83
2022/10/08 00:57:51;;;;;;;9.85;6.30;;;15.60;99.90;;;;;;4943634;29;20128;-82
2022/10/08 01:00:24;;;;;;;13.93;7.40;;;15.60;99.90;;;;;;4938029;29;20052;-83
2022/10/08 01:02:52;;;;;;;12.40;6.78;;;15.60;99.90;;;;;;4933531;29;20048;-82
2022/10/08 01:05:29;;;;;;;8.60;5.53;;;15.60;99.90;;;;;;4932762;29;20051;-83
2022/10/08 01:08:21;;;;;;;9.88;6.03;;;15.60;99.90;;;;;;4946590;29;20066;-83
2022/10/08 01:11:24;;;;;;;11.63;4.78;;;15.60;99.90;;;;;;4953004;29;20059;-82
2022/10/08 01:14:19;;;;;;;13.55;4.95;;;15.60;99.90;;;;;;4933008;29;20048;-83
2022/10/08 01:17:07;;;;;;;10.25;4.95;;;15.60;99.90;;;;;;4933155;29;20055;-82
2022/10/08 01:19:43;;;;;;;11.07;5.30;;;15.60;99.90;;;;;;4939672;29;20048;-84
2022/10/08 01:22:26;;;;;;;9.82;4.60;;;15.60;99.90;;;;;;4937072;29;20054;-82
2022/10/08 01:27:53;;;;;;;11.27;5.78;;;15.50;99.90;;;;;;4944934;29;20075;-83
2022/10/08 01:30:20;;;;;;;15.85;5.05;;;15.60;99.90;;;;;;4945754;29;20080;-83
2022/10/08 01:32:56;;;;;;;14.52;4.75;;;15.60;99.90;;;;;;4950999;29;20052;-83
2022/10/08 01:35:29;;;;;;;9.00;4.40;;;15.60;99.90;;;;;;4940911;29;20111;-84
2022/10/08 01:38:02;;;;;;;12.13;4.90;;;15.60;99.90;;;;;;4938663;29;20079;-83
2022/10/08 01:40:33;;;;;;;12.88;4.60;;;15.50;99.90;;;;;;4943902;29;20052;-84
2022/10/08 01:43:02;;;;;;;12.85;4.43;;;15.60;99.90;;;;;;4945372;29;20082;-83
2022/10/08 01:45:34;;;;;;;12.47;4.50;;;15.60;99.90;;;;;;4938031;29;20052;-83
2022/10/08 01:48:05;;;;;;;8.07;4.57;;;15.60;99.90;;;;;;4948001;29;20108;-84
2022/10/08 01:50:37;;;;;;;9.35;4.75;;;15.60;99.90;;;;;;4952314;29;20079;-84
2022/10/08 01:53:10;;;;;;;10.57;5.03;;;15.60;99.90;;;;;;4945484;29;20070;-82
2022/10/08 01:55:44;;;;;;;13.73;4.97;;;15.60;99.90;;;;;;4944745;29;20083;-85
2022/10/08 01:58:15;;;;;;;9.07;4.63;;;15.60;99.90;;;;;;4946554;29;20090;-85
2022/10/08 02:00:44;;;;;;;11.43;4.88;;;15.60;99.90;;;;;;4946150;29;20086;-83
2022/10/08 02:03:11;;;;;;;15.95;5.68;;;15.60;99.90;;;;;;4940187;29;20066;-85
2022/10/08 02:05:42;;;;;;;16.02;5.35;;;15.60;99.90;;;;;;4940915;29;20059;-84
2022/10/08 02:08:09;;;;;;;9.70;4.68;;;15.70;99.90;;;;;;4943040;29;20055;-85
2022/10/08 02:10:36;;;;;;;16.40;5.43;;;15.70;99.90;;;;;;4948906;29;20062;-82
2022/10/08 02:13:03;;;;;;;12.10;4.45;;;15.60;99.90;;;;;;4930494;29;20111;-83
2022/10/08 02:15:36;;;;;;;12.70;5.43;;;15.70;99.90;;;;;;4935704;29;20075;-82
2022/10/08 02:18:17;;;;;;;10.00;4.38;;;15.70;99.90;;;;;;4934213;29;20071;-82
2022/10/08 02:20:49;;;;;;;12.63;4.68;;;15.70;99.90;;;;;;4945248;29;20480;-83
2022/10/08 02:23:32;;;;;;;10.23;4.35;;;15.70;99.90;;;;;;4943196;29;20056;-83
2022/10/08 02:26:02;;;;;;;16.58;5.82;;;15.70;99.90;;;;;;4937553;29;20060;-83
2022/10/08 02:28:56;;;;;;;15.80;4.93;;;15.70;99.90;;;;;;4937946;29;20115;-82
2022/10/08 02:31:39;;;;;;;11.55;4.28;;;15.70;99.90;;;;;;4945969;29;20466;-83
2022/10/08 02:34:19;;;;;;;11.20;5.25;;;15.70;99.90;;;;;;4946225;29;20056;-84
2022/10/08 02:37:00;;;;;;;13.57;5.25;;;15.70;99.90;;;;;;4950507;29;20078;-84
2022/10/08 02:39:29;;;;;;;10.05;5.25;;;15.70;99.90;;;;;;4956562;29;20103;-85
2022/10/08 02:42:01;;;;;;;10.20;4.87;;;15.80;99.90;;;;;;4946301;29;20054;-83
2022/10/08 02:44:55;;;;;;;9.13;4.85;;;15.70;99.90;;;;;;4941585;29;20370;-83
2022/10/08 02:47:25;;;;;;;9.18;4.55;;;15.70;99.90;;;;;;4940239;29;20103;-83
2022/10/08 02:49:58;;;;;;;9.38;4.93;;;15.70;99.90;;;;;;4938859;29;20127;-84
2022/10/08 02:52:29;;;;;;;7.18;4.63;;;15.60;99.90;;;;;;4936863;29;20051;-83
2022/10/08 02:54:59;;;;;;;10.00;4.32;;;15.60;99.90;;;;;;4944530;29;20062;-83
2022/10/08 02:57:39;;;;;;;14.05;4.55;;;15.60;99.90;;;;;;4936463;29;20134;-84
2022/10/08 03:00:06;;;;;;;;;;;15.70;99.90;;;;;;4941166;29;20058;-84
2022/10/08 03:02:54;;;;;;;12.82;5.65;;;15.70;99.90;;;;;;4945704;29;19923;-83
2022/10/08 03:05:21;;;;;;;11.10;4.47;;;15.70;99.90;;;;;;4942316;29;20044;-83
2022/10/08 03:07:50;;;;;;;11.68;4.35;;;15.70;99.90;;;;;;4937452;29;20044;-83
2022/10/08 03:10:18;;;;;;;13.85;4.75;;;15.80;99.90;;;;;;4932366;29;20549;-84
2022/10/08 03:12:46;;;;;;;9.55;4.10;;;15.80;99.90;;;;;;4943591;29;20056;-84
2022/10/08 03:15:13;;;;;;;10.65;5.03;;;15.90;99.90;;;;;;4942988;29;20052;-82
2022/10/08 03:17:43;;;;;;;11.13;4.72;;;15.90;99.90;;;;;;4945569;29;20052;-84
2022/10/08 03:20:11;;;;;;;14.18;4.40;;;16.00;99.90;;;;;;4935267;29;20055;-84
2022/10/08 03:22:38;;;;;;;11.65;4.40;;;16.10;99.90;;;;;;4946659;29;20050;-83
2022/10/08 03:25:05;;;;;;;9.20;4.85;;;16.10;99.90;;;;;;4943259;29;20503;-83
2022/10/08 03:27:33;;;;;;;8.07;4.30;;;16.10;99.90;;;;;;4941207;29;20102;-84
2022/10/08 03:30:01;;;;;;;7.53;4.20;;;16.10;99.90;;;;;;4937403;29;20053;-83
2022/10/08 03:32:28;;;;;;;8.15;4.07;;;16.20;99.90;;;;;;4945811;29;20056;-83
2022/10/08 03:34:55;;;;;;;10.38;4.40;;;16.20;99.90;;;;;;4938203;29;20514;-82
2022/10/08 03:37:21;;;;;;;12.02;4.75;;;16.20;99.90;;;;;;4937372;29;20058;-83
2022/10/08 03:39:48;;;;;;;16.98;4.30;;;16.20;99.90;;;;;;4933935;29;20044;-84
2022/10/08 03:42:15;;;;;;;12.95;4.22;;;16.20;99.90;;;;;;4936500;29;20068;-83
2022/10/08 03:44:41;;;;;;;10.18;4.00;;;16.30;99.90;;;;;;4936615;29;20434;-82
2022/10/08 03:47:08;;;;;;;9.20;3.90;;;16.30;99.90;;;;;;4938684;29;20082;-84
2022/10/08 03:49:35;;;;;;;9.00;4.35;;;16.30;99.90;;;;;;4942240;29;20058;-84
2022/10/08 03:52:01;;;;;;;12.38;4.90;;;16.30;99.90;;;;;;4940154;29;20078;-83
2022/10/08 03:54:28;;;;;;;12.70;4.28;;;16.40;99.90;;;;;;4933258;29;20165;-85
2022/10/08 03:56:55;;;;;;;13.57;4.63;;;16.40;99.90;;;;;;4952419;29;20056;-83
2022/10/08 03:59:22;;;;;;;7.45;4.10;;;16.40;99.90;;;;;;4935830;29;20043;-83
2022/10/08 04:01:48;;;;;;;16.17;4.65;;;16.50;99.90;;;;;;4933774;29;20048;-83
2022/10/08 04:04:15;;;;;;;11.32;4.13;;;16.50;99.90;;;;;;4945738;29;20090;-84
2022/10/08 04:06:45;;;;;;;10.45;4.40;;;16.50;99.90;;;;;;4941399;29;20047;-83
2022/10/08 04:09:11;;;;;;;7.43;4.75;;;16.50;99.90;;;;;;4937636;29;20056;-84
2022/10/08 04:11:38;;;;;;;13.30;4.88;;;16.50;99.90;;;;;;4932874;29;20188;-83
2022/10/08 04:14:05;;;;;;;9.98;4.88;;;16.50;99.90;;;;;;4943357;29;20063;-83
2022/10/08 04:16:32;;;;;;;13.98;4.88;;;16.50;99.90;;;;;;4941012;29;20115;-83
2022/10/08 04:18:58;;;;;;;9.02;4.38;;;16.50;99.90;;;;;;4939431;29;20048;-84
2022/10/08 04:21:25;;;;;;;10.55;5.38;;;16.50;99.90;;;;;;4933228;29;20111;-84
2022/10/08 04:23:52;;;;;;;10.73;4.35;;;16.50;99.90;;;;;;4939739;29;20058;-84
2022/10/08 04:26:18;;;;;;;13.40;4.32;;;16.60;99.90;;;;;;4951568;29;20054;-84
2022/10/08 04:28:46;;;;;;;10.57;5.07;;;16.60;99.90;;;;;;4943528;29;20052;-84
2022/10/08 04:31:16;;;;;;;10.38;4.88;;;16.60;99.90;;;;;;4942023;29;20055;-83
2022/10/08 04:33:44;;;;;;;8.63;4.87;;;16.60;99.90;;;;;;4936056;29;20051;-83
2022/10/08 04:36:17;;;;;;;11.43;4.60;;;16.60;99.90;;;;;;4942643;29;20044;-84
2022/10/08 04:38:44;;;;;;;8.65;5.13;;;16.60;99.90;;;;;;4940857;29;20075;-83
2022/10/08 04:41:16;;;;;;;11.10;4.47;;;16.60;99.90;;;;;;4939319;29;20120;-83
2022/10/08 04:43:46;;;;;;;13.77;5.10;;;16.70;99.90;;;;;;4949588;29;20050;-83
2022/10/08 04:46:16;;;;;;;11.77;5.22;;;16.60;99.90;;;;;;4948507;29;20139;-83
2022/10/08 04:48:48;;;;;;;11.23;5.10;;;16.60;99.90;;;;;;4944649;29;20055;-82
2022/10/08 04:51:15;;;;;;;12.38;6.00;;;16.70;99.90;;;;;;4943154;29;20059;-83
2022/10/08 04:53:42;;;;;;;11.90;4.72;;;16.60;99.90;;;;;;4937438;29;20099;-82
2022/10/08 04:56:18;;;;;;;9.45;5.18;;;16.50;99.90;;;;;;4943113;29;20047;-82
2022/10/08 04:58:45;;;;;;;14.10;4.82;;;16.50;99.90;;;;;;4941723;29;20048;-83
2022/10/08 05:01:14;;;;;;;11.65;5.70;;;16.60;99.90;;;;;;4939278;29;20076;-82
2022/10/08 05:03:46;;;;;;;11.60;5.07;;;16.60;99.90;;;;;;4934234;29;20056;-83
2022/10/08 05:06:14;;;;;;;13.60;5.22;;;16.60;99.90;;;;;;4941260;29;20510;-80
2022/10/08 05:08:41;;;;;;;9.98;4.75;;;16.60;99.90;;;;;;4936013;29;20048;-83
2022/10/08 05:11:09;;;;;;;13.70;5.28;;;16.60;99.90;;;;;;4941086;29;20078;-82
2022/10/08 05:13:36;;;;;;;11.25;5.43;;;16.60;99.90;;;;;;4930334;29;20056;-82
2022/10/08 05:16:11;;;;;;;17.17;6.55;;;16.60;99.90;;;;;;4932554;29;20120;-84
2022/10/08 05:18:40;;;;;;;11.57;4.97;;;16.60;99.90;;;;;;4937935;29;20075;-82
2022/10/08 05:21:10;;;;;;;11.60;5.38;;;16.60;99.90;;;;;;4944287;29;20058;-83
2022/10/08 05:23:37;;;;;;;12.35;5.53;;;16.60;99.90;;;;;;4962864;29;20120;-83
2022/10/08 05:26:12;;;;;;;11.70;4.65;;;16.50;99.90;;;;;;4940330;29;20054;-83
2022/10/08 05:28:39;;;;;;;9.48;5.20;;;16.60;99.90;;;;;;4937728;29;20131;-81
2022/10/08 05:31:06;;;;;;;12.35;5.20;;;16.50;99.90;;;;;;4937165;29;20151;-83
2022/10/08 05:33:35;;;;;;;11.48;5.00;;;16.50;99.90;;;;;;4938053;29;20051;-82
2022/10/08 05:36:03;;;;;;;11.52;4.78;;;16.50;99.90;;;;;;4930935;29;20060;-82
2022/10/08 05:38:30;;;;;;;17.60;5.75;;;16.50;99.90;;;;;;4940299;29;20142;-83
2022/10/08 05:41:13;;;;;;;;;;;16.50;99.90;;;;;;4944206;29;20060;-83
2022/10/08 05:43:40;;;;;;;12.65;4.93;;;16.50;99.90;;;;;;4938497;29;19922;-82
2022/10/08 05:46:06;;;;;;;11.32;5.25;;;16.50;99.90;;;;;;4934074;29;20052;-84
2022/10/08 05:48:34;;;;;;;10.00;5.53;;;16.50;99.90;;;;;;4939599;29;20044;-82
2022/10/08 05:51:08;;;;;;;10.65;5.38;;;16.50;99.90;;;;;;4942094;29;20059;-84
2022/10/08 05:53:36;;;;;;;9.75;5.10;;;16.50;99.90;;;;;;4940728;29;20051;-84
2022/10/08 05:56:05;;;;;;;12.60;5.07;;;16.50;99.90;;;;;;4932535;29;20052;-82
2022/10/08 05:58:33;;;;;;;8.63;6.07;;;16.50;99.90;;;;;;4937387;29;20066;-82
2022/10/08 06:01:02;;;;;;;15.50;6.60;;;16.40;99.90;;;;;;4941252;29;20102;-82
2022/10/08 06:03:29;;;;;;;15.00;5.63;;;16.50;99.90;;;;;;4938370;29;20072;-83
2022/10/08 06:06:05;;;;;;;9.75;4.53;;;16.50;99.90;;;;;;4934159;29;20048;-83
2022/10/08 06:08:33;;;;;;;15.70;5.10;;;16.50;99.90;;;;;;4936656;29;20044;-84
2022/10/08 06:11:00;;;;;;;10.52;4.57;;;16.50;99.90;;;;;;4940187;29;20056;-84
2022/10/08 06:13:27;;;;;;;13.90;4.18;;;16.50;99.90;;;;;;4936993;29;20061;-82
2022/10/08 06:16:07;;;;;;;10.75;4.22;;;16.50;99.90;;;;;;4933871;29;20455;-82
2022/10/08 06:18:39;;;;;;;12.07;4.28;;;16.50;99.90;;;;;;4962844;29;20048;-83
2022/10/08 06:21:08;;;;;;;6.60;3.38;;;16.50;99.90;;;;;;4945709;29;20139;-83
2022/10/08 06:23:36;;;;;;;10.70;3.50;;;16.50;99.90;;;;;;4942841;29;20115;-83
2022/10/08 06:26:04;;;;;;;11.77;3.85;;;16.50;99.90;;;;;;4946767;29;20086;-83
2022/10/08 06:28:32;;;;;;;9.27;3.42;;;16.50;99.90;;;;;;4937971;29;20256;-83
2022/10/08 06:30:59;;;;;;;9.23;3.70;;;16.50;99.90;;;;;;4949747;29;20055;-82
2022/10/08 06:33:27;;;;;;;11.90;4.00;;;16.50;99.90;;;;;;4945494;29;20055;-83
2022/10/08 06:35:54;;;;;;;9.73;3.80;;;16.50;99.90;;;;;;4935486;29;20133;-84
2022/10/08 06:38:21;;;;;;;9.80;4.38;;;16.50;99.90;;;;;;4936919;29;20135;-82
2022/10/08 06:40:48;;;;;;;9.52;4.20;;;16.50;99.90;;;;;;4936613;29;20024;-81
2022/10/08 06:43:17;;;;;;;9.30;4.07;;;16.50;99.90;;;;;;4946152;29;20100;-84
2022/10/08 06:45:45;;;;;;;10.38;3.95;;;16.60;99.90;;;;;;4950467;29;20119;-81
2022/10/08 06:48:12;;;;;;;6.57;3.60;;;16.60;99.90;;;;;;4948074;29;20048;-83
2022/10/08 06:50:40;;;;;;;9.40;3.90;;;16.60;99.90;;;;;;4938793;29;20051;-82
2022/10/08 06:53:08;;;;;;;9.88;4.40;;;16.50;99.90;;;;;;4936424;29;20056;-84
2022/10/08 06:55:36;;;;;;;37.47;6.00;;;16.60;99.90;;;;;;4946500;29;20099;-81
2022/10/08 06:58:04;;;;;;;11.35;4.45;;;16.60;99.90;;;;;;4945172;29;20059;-82
2022/10/08 07:00:31;;;;;;;8.05;4.38;;;16.60;99.90;;;;;;4948706;29;20044;-82
2022/10/08 07:02:58;;;;;;;11.00;4.38;;;16.70;99.90;;;;;;4949222;29;20062;-83
2022/10/08 07:05:25;;;;;;;7.22;3.90;;;16.70;99.90;;;;;;4939757;29;20056;-82
2022/10/08 07:07:51;;;;;;;11.63;4.20;;;16.70;99.90;;;;;;4941906;29;20107;-81
2022/10/08 07:10:18;;;;;;;6.75;3.90;;;16.70;99.90;;;;;;4944214;29;20058;-82
2022/10/08 07:12:45;;;;;;;12.70;4.38;;;16.70;99.90;;;;;;4947892;29;20051;-83
2022/10/08 07:15:12;;;;;;;7.30;4.20;;;16.70;99.90;;;;;;4945776;29;20052;-82
2022/10/08 07:17:39;;;;;;;9.70;3.90;;;16.70;99.90;;;;;;4944242;29;20110;-82
2022/10/08 07:20:06;;;;;;;7.40;4.22;;;16.70;99.90;;;;;;4944368;29;20091;-82
2022/10/08 07:22:33;;;;;;;12.80;4.35;;;16.80;99.90;;;;;;4941204;28;20054;-81
2022/10/08 07:25:00;;;;;;;10.90;4.35;;;16.80;99.90;;;;;;4936435;29;20052;-82
2022/10/08 07:27:27;;;;;;;13.35;4.63;;;16.80;99.90;;;;;;4938222;29;20103;-83
2022/10/08 07:29:53;;;;;;;12.48;5.63;;;16.80;99.90;;;;;;4942804;29;20071;-82
2022/10/08 07:32:20;;;;;;;9.27;4.63;;;16.90;99.90;;;;;;4940387;29;20056;-81
2022/10/08 07:34:47;;;;;;;10.85;5.55;;;16.80;99.90;;;;;;4935665;29;20051;-82
2022/10/08 07:37:13;;;;;;;11.85;5.00;;;16.80;99.90;;;;;;4942969;29;20055;-83
2022/10/08 07:39:40;;;;;;;10.35;4.78;;;16.90;99.90;;;;;;4941294;29;20131;-83
2022/10/08 07:42:07;;;;;;;14.20;5.22;;;16.80;99.90;;;;;;4931009;29;20056;-83
2022/10/08 07:44:33;;;;;;;12.90;4.97;;;16.90;99.90;;;;;;4940164;29;20474;-82
2022/10/08 07:47:00;;;;;;;12.85;6.35;;;16.90;99.90;;;;;;4941448;29;20048;-81
2022/10/08 07:49:27;;;;;;;10.30;6.15;;;17.00;99.90;;;;;;4951975;28;20051;-83
2022/10/08 07:51:54;;;;;;;11.27;5.30;;;17.00;99.90;;;;;;4938643;29;20109;-83
2022/10/08 07:54:21;;;;;;;11.48;4.43;;;17.10;99.90;;;;;;4945848;29;20048;-82
2022/10/08 07:56:48;;;;;;;13.27;6.40;;;17.00;99.90;;;;;;4944805;29;20048;-82
2022/10/08 07:59:14;;;;;;;13.52;6.93;;;17.10;99.90;;;;;;4955089;29;20044;-84
2022/10/08 08:01:42;;;;;;;18.10;8.38;;;17.00;99.90;;;;;;4949024;29;20053;-84
2022/10/08 08:04:10;;;;;;;13.38;5.95;;;17.00;99.90;;;;;;4941364;29;20047;-83
2022/10/08 08:06:47;;;;;;;16.05;5.35;;;17.00;99.90;;;;;;4945515;29;20044;-84
2022/10/08 08:09:14;;;;;;;11.23;5.82;;;17.00;99.90;;;;;;4963308;28;20135;-83
2022/10/08 08:11:41;;;;;;;12.20;5.80;;;17.00;99.90;;;;;;4944084;29;20107;-83
2022/10/08 08:14:08;;;;;;;13.13;5.65;;;17.20;99.90;;;;;;4951589;29;20530;-84
2022/10/08 08:16:35;;;;;;;11.02;5.00;;;17.20;99.90;;;;;;4946887;28;20067;-84
2022/10/08 08:19:03;;;;;;;16.70;6.30;;;17.20;99.90;;;;;;4945848;29;20545;-83
2022/10/08 08:21:33;;;;;;;10.13;6.15;;;17.30;99.90;;;;;;4940940;28;20457;-83
2022/10/08 08:24:18;;;;;;;13.30;5.43;;;17.30;99.90;;;;;;4938540;29;20050;-84
2022/10/08 08:26:44;;;;;;;11.43;5.03;;;17.40;99.90;;;;;;4946774;29;20074;-81
2022/10/08 08:29:17;;;;;;;7.88;4.65;;;17.40;99.90;;;;;;4934808;29;20047;-83
2022/10/08 08:31:46;;;;;;;9.77;5.05;;;17.50;99.90;;;;;;4941409;29;20051;-82
2022/10/08 08:34:15;;;;;;;15.80;6.35;;;17.60;99.90;;;;;;4940404;29;20052;-83
2022/10/08 08:36:44;;;;;;;12.52;5.65;;;17.60;99.90;;;;;;4934939;29;20077;-82
2022/10/08 08:39:16;;;;;;;12.40;5.88;;;17.60;99.90;;;;;;4936811;29;20060;-82
2022/10/08 08:42:17;;;;;;;9.02;5.65;;;17.60;99.90;;;;;;4940043;29;20432;-82
2022/10/08 08:44:57;;;;;;;14.82;6.38;;;17.60;99.90;;;;;;4946904;29;20075;-82
2022/10/08 08:47:34;;;;;;;12.75;5.95;;;17.60;99.90;;;;;;4946116;29;20119;-84
2022/10/08 08:50:14;;;;;;;13.70;6.50;;;17.60;99.90;;;;;;4934904;29;20133;-84
2022/10/08 08:52:42;;;;;;;11.88;5.72;;;17.60;99.90;;;;;;4935660;29;20049;-82
2022/10/08 08:55:13;;;;;;;13.80;7.05;;;17.60;99.90;;;;;;4930106;29;20055;-83
2022/10/08 08:58:06;;;;;;;12.82;6.20;;;17.60;99.90;;;;;;4939874;29;20050;-83
2022/10/08 09:00:41;;;;;;;12.43;7.25;;;17.60;99.90;;;;;;4934835;29;20075;-83
2022/10/08 09:03:22;;;;;;;10.25;7.35;;;17.60;99.90;;;;;;4939767;29;20050;-83
2022/10/08 09:05:56;;;;;;;15.32;6.90;;;17.60;99.90;;;;;;4945258;29;20048;-83
2022/10/08 09:08:41;;;;;;;14.57;7.18;;;17.70;99.90;;;;;;4943874;29;20047;-83
2022/10/08 09:11:16;;;;;;;10.10;6.40;;;17.80;99.90;;;;;;4941653;29;20465;-83
2022/10/08 09:13:52;;;;;;;17.58;6.35;;;17.90;99.90;;;;;;4940864;29;20051;-82
2022/10/08 09:16:18;;;;;;;11.13;5.85;;;17.90;99.90;;;;;;4934281;29;20078;-83
2022/10/08 09:18:49;;;;;;;13.52;6.10;;;18.00;99.90;;;;;;4946681;29;20666;-84
2022/10/08 09:21:17;;;;;;;12.82;6.05;;;18.00;99.90;;;;;;4942377;29;20082;-84
2022/10/08 09:23:45;;;;;;;10.43;6.28;;;18.10;99.90;;;;;;4943181;29;20050;-84
2022/10/08 09:26:20;;;;;;;13.68;5.75;;;18.10;99.90;;;;;;4948464;29;20047;-83
2022/10/08 09:28:58;;;;;;;13.00;6.28;;;18.10;99.90;;;;;;4948300;29;20055;-83
2022/10/08 09:31:34;;;;;;;13.77;6.68;;;18.20;99.90;;;;;;4941266;29;20119;-83
2022/10/08 09:34:12;;;;;;;10.90;6.10;;;18.30;99.90;;;;;;4945252;29;20087;-83
2022/10/08 09:36:51;;;;;;;8.82;6.38;;;18.40;99.90;;;;;;4945268;29;20113;-83
2022/10/08 09:39:24;;;;;;;14.95;7.07;;;18.50;99.90;;;;;;4946493;29;20055;-83
2022/10/08 09:42:05;;;;;;;16.17;7.13;;;18.60;99.90;;;;;;4945041;29;20290;-83
2022/10/08 09:44:40;;;;;;;10.00;7.03;;;18.70;99.90;;;;;;4942582;29;20051;-83
2022/10/08 09:47:10;;;;;;;16.20;7.57;;;18.70;99.90;;;;;;4933281;29;20052;-83
2022/10/08 09:49:37;;;;;;;10.60;6.95;;;18.70;99.90;;;;;;4944111;29;20055;-84
2022/10/08 09:52:06;;;;;;;15.73;7.30;;;18.70;99.90;;;;;;4941032;29;20648;-84
2022/10/08 09:54:40;;;;;;;11.15;6.22;;;18.70;99.90;;;;;;4939587;29;20055;-83
2022/10/08 09:57:07;;;;;;;12.45;6.28;;;18.80;99.90;;;;;;4937999;29;20048;-84
2022/10/08 09:59:41;;;;;;;12.88;6.40;;;18.80;99.90;;;;;;4943307;29;20057;-84
2022/10/08 10:02:34;;;;;;;11.48;7.18;;;18.90;99.90;;;;;;4944277;29;20059;-84
2022/10/08 10:05:06;;;;;;;9.98;6.95;;;18.90;99.90;;;;;;4945003;29;20422;-83
2022/10/08 10:07:39;;;;;;;13.45;6.72;;;18.90;99.90;;;;;;4940850;28;20058;-84
2022/10/08 10:10:28;;;;;;;9.52;6.03;;;18.90;99.90;;;;;;4935823;29;20107;-83
2022/10/08 10:13:17;;;;;;;9.13;6.25;;;18.90;99.90;;;;;;4936743;29;20047;-83
2022/10/08 10:15:57;;;;;;;9.02;6.10;;;18.90;99.90;;;;;;4941746;29;20055;-80
2022/10/08 10:18:37;;;;;;;;;;;18.90;99.90;;;;;;4938827;29;20103;-83
2022/10/08 10:21:13;;;;;;;11.27;6.78;;;18.90;99.90;;;;;;4943329;29;20056;-83
2022/10/08 10:23:48;;;;;;;10.02;6.38;;;18.80;99.90;;;;;;4936175;29;20054;-83
2022/10/08 10:26:22;;;;;;;11.85;6.88;;;18.80;99.90;;;;;;4937761;29;20670;-83
2022/10/08 10:29:05;;;;;;;15.10;7.20;;;18.80;99.90;;;;;;4934135;29;20076;-82
2022/10/08 10:31:33;;;;;;;12.90;6.88;;;18.70;99.90;;;;;;4942415;29;20468;-83
2022/10/08 10:34:12;;;;;;;11.75;6.78;;;18.70;99.90;;;;;;4942604;29;20055;-83
2022/10/08 10:36:49;;;;;;;13.45;7.00;;;18.70;99.90;;;;;;4941662;29;20055;-84
2022/10/08 10:39:30;;;;;;;12.52;7.20;;;18.70;99.90;;;;;;4934786;29;20055;-82
2022/10/08 10:42:22;;;;;;;14.48;7.78;;;18.80;99.90;;;;;;4935539;29;20048;-84
2022/10/08 10:44:56;;;;;;;12.68;7.03;;;18.70;99.90;;;;;;4938401;29;20509;-83
2022/10/08 10:47:27;;;;;;;11.43;6.90;;;18.80;99.90;;;;;;4936150;29;20484;-82
2022/10/08 10:50:00;;;;;;;13.00;6.53;;;18.80;99.90;;;;;;4932493;29;20048;-84
2022/10/08 10:52:35;;;;;;;15.13;6.47;;;18.80;99.90;;;;;;4940567;29;20062;-83
2022/10/08 10:55:17;;;;;;;8.73;5.80;;;18.90;99.90;;;;;;4936450;29;20052;-83
2022/10/08 10:58:11;;;;;;;8.93;6.45;;;19.00;99.90;;;;;;4935528;29;20060;-83
2022/10/08 11:00:42;;;;;;;10.82;6.60;;;19.00;99.90;;;;;;4930434;29;20048;-82
2022/10/08 11:03:27;;;;;;;9.40;6.80;;;19.10;99.90;;;;;;4932571;29;20051;-83
2022/10/08 11:06:18;;;;;;;12.00;6.88;;;19.20;99.90;;;;;;4938014;29;20052;-83
2022/10/08 11:09:02;;;;;;;11.88;6.78;;;19.20;99.90;;;;;;4934977;29;20048;-83
2022/10/08 11:11:42;;;;;;;11.77;6.78;;;19.30;99.90;;;;;;4931148;29;20052;-84
2022/10/08 11:14:53;;;;;;;10.98;5.13;;;19.30;99.90;;;;;;4940128;29;20063;-83
2022/10/08 11:17:36;;;;;;;8.15;4.07;;;19.20;99.90;;;;;;4929221;29;20103;-84
2022/10/08 11:20:24;;;;;;;15.38;4.15;;;18.90;99.90;;;;;;4933151;29;20052;-83
2022/10/08 11:23:13;;;;;;;17.70;4.50;;;18.70;99.90;;;;;;4934546;29;20055;-83
2022/10/08 11:25:51;;;;;;;12.65;4.10;;;18.70;99.90;;;;;;4935324;29;20498;-83
2022/10/08 11:28:52;;;;;;;11.50;3.97;;;18.60;99.90;;;;;;4930418;29;20059;-82
2022/10/08 11:31:18;;;;;;;7.47;3.20;;;18.50;99.90;;;;;;4926941;29;20059;-83
2022/10/08 11:33:47;;;;;;;9.75;4.32;;;18.30;99.90;;;;;;4929387;29;20047;-82
2022/10/08 11:36:42;;;;;;;10.45;4.32;;;18.30;99.90;;;;;;4932748;29;20107;-83
2022/10/08 11:39:18;;;;;;;8.85;4.95;;;18.20;99.90;;;;;;4934581;29;20431;-83
2022/10/08 11:41:56;;;;;;;9.55;4.25;;;18.10;99.90;;;;;;4935834;29;20179;-83
2022/10/08 11:44:25;;;;;;;7.20;3.85;;;18.10;99.90;;;;;;4940585;29;20052;-82
2022/10/08 11:46:52;;;;;;;11.80;4.10;;;18.20;99.90;;;;;;4937730;29;20047;-83
2022/10/08 11:49:18;;;;;;;12.95;4.13;;;18.30;99.90;;;;;;4939694;29;20048;-83
2022/10/08 11:51:54;;;;;;;9.90;4.60;;;18.40;99.90;;;;;;4935094;29;20056;-83
2022/10/08 11:54:33;;;;;;;5.65;3.60;;;18.60;99.90;;;;;;4943498;29;20048;-83
2022/10/08 11:57:32;;;;;;;9.05;3.33;;;18.70;99.90;;;;;;4935582;29;20095;-82
2022/10/08 12:00:39;;;;;;;8.98;3.90;;;18.80;99.90;;;;;;4938592;29;20059;-84
2022/10/08 12:03:29;;;;;;;10.18;4.35;;;18.80;99.90;;;;;;4933380;29;20063;-84
2022/10/08 12:06:18;;;;;;;5.90;3.22;;;18.70;99.90;;;;;;4945392;29;20115;-83
2022/10/08 12:08:58;;;;;;;12.07;3.42;;;18.70;99.90;;;;;;4942301;29;20116;-83
2022/10/08 12:11:31;;;;;;;6.45;3.25;;;18.60;99.90;;;;;;4938509;29;20486;-83
2022/10/08 12:14:09;;;;;;;7.70;3.30;;;18.50;99.90;;;;;;4932386;29;20044;-83
2022/10/08 12:16:54;;;;;;;11.40;3.42;;;18.50;99.90;;;;;;4931850;29;20076;-83
2022/10/08 12:19:36;;;;;;;10.68;3.35;;;18.50;99.90;;;;;;4936870;29;20140;-83
2022/10/08 12:22:09;;;;;;;7.82;3.47;;;18.50;99.90;;;;;;4951810;29;20048;-83
2022/10/08 12:24:36;;;;;;;14.38;4.57;;;18.60;99.90;;;;;;4947067;29;20058;-84
2022/10/08 12:27:15;;;;;;;10.23;2.70;;;18.60;99.90;;;;;;4946233;29;20600;-84
2022/10/08 12:29:55;;;;;;;7.30;2.63;;;18.70;99.90;;;;;;4943021;29;20052;-84
2022/10/08 12:32:23;;;;;;;;;;;18.80;99.90;;;;;;4941571;29;20153;-84
2022/10/08 12:34:51;;;;;;;13.15;3.20;;;18.90;99.90;;;;;;4937815;29;19927;-84
2022/10/08 12:37:43;;;;;;;6.03;2.10;;;18.90;99.90;;;;;;4937590;29;20094;-83
2022/10/08 12:40:35;;;;;;;8.05;2.60;;;18.90;99.90;;;;;;4937400;29;20514;-84
2022/10/08 12:43:10;;;;;;;6.03;3.03;;;18.80;99.90;;;;;;4933652;29;20345;-84
2022/10/08 12:46:19;;;;;;;8.70;2.45;;;18.70;99.90;;;;;;4934045;29;20063;-84
2022/10/08 12:48:52;;;;;;;8.63;2.80;;;18.80;99.90;;;;;;4954661;29;20135;-84
2022/10/08 12:51:38;;;;;;;5.90;2.55;;;18.80;99.90;;;;;;4945616;29;20103;-84
2022/10/08 12:54:13;;;;;;;7.70;2.80;;;18.80;99.90;;;;;;4945731;29;20082;-83
2022/10/08 12:56:40;;;;;;;4.45;2.38;;;18.90;99.90;;;;;;4938229;29;20054;-83
2022/10/08 12:59:10;;;;;;;5.00;2.13;;;18.90;99.90;;;;;;4950875;29;20155;-84
2022/10/08 13:01:39;;;;;;;6.20;2.13;;;18.90;99.90;;;;;;4946256;29;20075;-83
2022/10/08 13:04:07;;;;;;;7.07;2.35;;;18.90;99.90;;;;;;4942038;29;20050;-84
2022/10/08 13:06:34;;;;;;;9.75;2.78;;;18.80;99.90;;;;;;4950851;29;20048;-83
2022/10/08 13:09:26;;;;;;;9.60;2.55;;;18.80;99.90;;;;;;4951152;29;20054;-83
2022/10/08 13:11:55;;;;;;;11.70;2.28;;;18.80;99.90;;;;;;4955663;29;20063;-82
2022/10/08 13:14:40;;;;;;;5.28;2.33;;;18.70;99.90;;;;;;4943156;29;20056;-83